createdAt,value
2022-12-03T00:00:05.052Z,92.07
2022-12-03T00:01:39.126Z,92.06
2022-12-03T00:03:12.242Z,92.06
2022-12-03T00:04:43.975Z,92.15
2022-12-03T00:06:15.756Z,92.01
2022-12-03T00:07:47.431Z,91.28
2022-12-03T00:09:19.086Z,91.96
2022-12-03T00:10:50.822Z,91.28
2022-12-03T00:12:22.479Z,91.34
2022-12-03T00:13:54.091Z,91.40
2022-12-03T00:15:25.766Z,91.67
2022-12-03T00:16:57.371Z,92.34
2022-12-03T00:18:30.413Z,92.38
2022-12-03T00:20:02.042Z,92.37
2022-12-03T00:21:33.694Z,92.06
2022-12-03T00:23:05.326Z,91.82
2022-12-03T00:24:36.942Z,91.56
2022-12-03T00:26:08.571Z,90.91
2022-12-03T00:27:40.223Z,91.60
2022-12-03T00:29:11.840Z,92.49
2022-12-03T00:30:43.463Z,91.69
2022-12-03T00:32:15.149Z,92.24
2022-12-03T00:33:48.084Z,92.33
2022-12-03T00:35:19.700Z,92.25
2022-12-03T00:36:51.334Z,92.10
2022-12-03T00:38:22.978Z,92.52
2022-12-03T00:39:54.596Z,92.57
2022-12-03T00:41:26.215Z,92.22
2022-12-03T00:42:57.844Z,92.15
2022-12-03T00:44:29.447Z,92.24
2022-12-03T00:46:01.164Z,92.57
2022-12-03T00:47:32.866Z,92.23
2022-12-03T00:49:05.818Z,92.20
2022-12-03T00:50:37.436Z,91.96
2022-12-03T00:52:09.068Z,91.88
2022-12-03T00:53:40.721Z,93.33
2022-12-03T00:55:12.353Z,92.32
2022-12-03T00:56:43.975Z,92.27
2022-12-03T00:58:15.614Z,91.92
2022-12-03T00:59:47.236Z,92.12
2022-12-03T01:01:18.930Z,92.29
2022-12-03T01:02:51.364Z,92.35
2022-12-03T01:04:24.414Z,92.32
2022-12-03T01:05:56.047Z,92.42
2022-12-03T01:07:27.770Z,92.40
2022-12-03T01:08:59.392Z,92.74
2022-12-03T01:10:31.012Z,92.65
2022-12-03T01:12:02.678Z,92.60
2022-12-03T01:13:34.309Z,92.53
2022-12-03T01:15:07.146Z,92.63
2022-12-03T01:16:38.935Z,92.15
2022-12-03T01:18:10.615Z,92.15
2022-12-03T01:19:48.232Z,92.06
2022-12-03T01:21:20.291Z,92.20
2022-12-03T01:22:51.947Z,92.19
2022-12-03T01:24:23.684Z,92.65
2022-12-03T01:25:55.314Z,92.15
2022-12-03T01:27:26.955Z,92.91
2022-12-03T01:29:03.739Z,92.23
2022-12-03T01:30:55.420Z,92.60
2022-12-03T01:32:27.099Z,92.48
2022-12-03T01:33:58.788Z,92.56
2022-12-03T01:35:31.772Z,93.20
2022-12-03T01:37:03.455Z,92.68
2022-12-03T01:38:35.137Z,92.64
2022-12-03T01:40:07.748Z,92.60
2022-12-03T01:41:39.355Z,93.37
2022-12-03T01:43:11.087Z,93.15
2022-12-03T01:44:42.706Z,93.80
2022-12-03T01:46:14.409Z,93.91
2022-12-03T01:47:46.127Z,93.90
2022-12-03T01:49:20.225Z,92.97
2022-12-03T01:50:53.358Z,93.12
2022-12-03T01:52:26.793Z,93.39
2022-12-03T01:53:58.429Z,93.83
2022-12-03T01:55:30.053Z,93.05
2022-12-03T01:57:01.923Z,92.36
2022-12-03T01:58:33.553Z,92.66
2022-12-03T02:00:06.486Z,93.55
2022-12-03T02:01:38.165Z,92.99
2022-12-03T02:03:12.358Z,93.61
2022-12-03T02:04:43.977Z,93.63
2022-12-03T02:06:18.060Z,93.99
2022-12-03T02:07:49.821Z,93.77
2022-12-03T02:09:21.495Z,93.62
2022-12-03T02:10:53.124Z,93.91
2022-12-03T02:12:26.863Z,93.48
2022-12-03T02:14:00.667Z,93.37
2022-12-03T02:15:32.272Z,93.26
2022-12-03T02:17:03.882Z,92.51
2022-12-03T02:18:35.565Z,92.89
2022-12-03T02:20:08.492Z,93.06
2022-12-03T02:21:43.079Z,93.04
2022-12-03T02:23:17.926Z,93.33
2022-12-03T02:24:52.821Z,93.41
2022-12-03T02:26:26.051Z,94.54
2022-12-03T02:27:57.967Z,93.50
2022-12-03T02:29:29.583Z,93.13
2022-12-03T02:31:01.257Z,93.81
2022-12-03T02:32:32.967Z,93.01
2022-12-03T02:34:05.737Z,92.92
2022-12-03T02:35:37.440Z,92.91
2022-12-03T02:37:11.169Z,93.22
2022-12-03T02:38:42.971Z,94.08
2022-12-03T02:40:16.367Z,94.28
2022-12-03T02:42:07.875Z,94.12
2022-12-03T02:43:39.470Z,94.19
2022-12-03T02:45:12.541Z,94.42
2022-12-03T02:46:44.248Z,94.61
2022-12-03T02:48:16.886Z,94.77
2022-12-03T02:49:48.538Z,94.95
2022-12-03T02:51:20.152Z,93.94
2022-12-03T02:52:52.046Z,94.18
2022-12-03T02:54:23.957Z,95.12
2022-12-03T02:55:56.213Z,94.94
2022-12-03T02:57:29.197Z,94.47
2022-12-03T02:59:02.180Z,94.35
2022-12-03T03:00:34.195Z,95.19
2022-12-03T03:02:05.861Z,94.98
2022-12-03T03:03:37.515Z,95.18
2022-12-03T03:05:09.970Z,95.22
2022-12-03T03:06:41.594Z,94.78
2022-12-03T03:08:13.273Z,94.67
2022-12-03T03:09:44.973Z,94.22
2022-12-03T03:11:16.617Z,94.88
2022-12-03T03:12:49.724Z,94.56
2022-12-03T03:14:21.330Z,94.81
2022-12-03T03:15:53.039Z,94.99
2022-12-03T03:17:24.788Z,94.87
2022-12-03T03:18:56.390Z,94.33
2022-12-03T03:20:27.985Z,94.75
2022-12-03T03:21:59.874Z,94.96
2022-12-03T03:23:31.711Z,94.81
2022-12-03T03:25:03.567Z,94.82
2022-12-03T03:26:35.198Z,94.72
2022-12-03T03:28:08.248Z,94.68
2022-12-03T03:29:39.900Z,94.18
2022-12-03T03:31:12.526Z,94.66
2022-12-03T03:32:44.245Z,95.10
2022-12-03T03:34:15.851Z,94.64
2022-12-03T03:35:47.582Z,94.43
2022-12-03T03:37:19.382Z,94.00
2022-12-03T03:38:51.603Z,94.31
2022-12-03T03:40:23.220Z,94.12
2022-12-03T03:41:54.819Z,94.60
2022-12-03T03:43:27.798Z,95.07
2022-12-03T03:44:59.531Z,95.17
2022-12-03T03:46:33.219Z,94.63
2022-12-03T03:48:05.885Z,94.47
2022-12-03T03:49:37.658Z,94.47
2022-12-03T03:51:09.656Z,93.94
2022-12-03T03:52:41.448Z,94.37
2022-12-03T03:54:13.060Z,95.06
2022-12-03T03:55:44.681Z,94.67
2022-12-03T03:57:16.294Z,95.09
2022-12-03T03:58:49.359Z,94.95
2022-12-03T04:00:20.957Z,95.09
2022-12-03T04:01:52.547Z,95.17
2022-12-03T04:03:24.216Z,95.25
2022-12-03T04:04:55.995Z,94.53
2022-12-03T04:06:27.801Z,94.55
2022-12-03T04:07:59.583Z,94.65
2022-12-03T04:09:31.253Z,94.62
2022-12-03T04:11:21.627Z,94.48
2022-12-03T04:12:55.936Z,93.97
2022-12-03T04:14:29.013Z,94.54
2022-12-03T04:16:00.676Z,94.78
2022-12-03T04:17:32.313Z,94.14
2022-12-03T04:19:03.904Z,93.91
2022-12-03T04:20:35.533Z,94.17
2022-12-03T04:22:26.130Z,93.75
2022-12-03T04:23:57.827Z,93.79
2022-12-03T04:25:48.349Z,94.32
2022-12-03T04:27:38.554Z,94.43
2022-12-03T04:29:10.236Z,94.24
2022-12-03T04:30:43.296Z,94.68
2022-12-03T04:32:33.791Z,94.84
2022-12-03T04:34:40.914Z,94.43
2022-12-03T04:36:12.514Z,95.54
2022-12-03T04:37:44.147Z,94.97
2022-12-03T04:39:15.772Z,94.20
2022-12-03T04:41:04.241Z,94.29
2022-12-03T04:42:36.215Z,94.52
2022-12-03T04:44:26.362Z,94.61
2022-12-03T04:45:59.474Z,94.48
2022-12-03T04:47:34.186Z,95.17
2022-12-03T04:49:08.463Z,94.45
2022-12-03T04:50:40.084Z,94.59
2022-12-03T04:52:12.505Z,94.73
2022-12-03T04:53:46.341Z,94.62
2022-12-03T04:55:18.195Z,94.47
2022-12-03T04:56:49.983Z,94.73
2022-12-03T04:58:21.695Z,93.40
2022-12-03T04:59:53.325Z,93.86
2022-12-03T05:01:26.411Z,94.01
2022-12-03T05:02:58.162Z,93.86
2022-12-03T05:04:29.981Z,94.06
2022-12-03T05:06:01.591Z,94.34
2022-12-03T05:07:33.375Z,95.10
2022-12-03T05:09:05.143Z,94.19
2022-12-03T05:10:36.885Z,94.50
2022-12-03T05:12:08.503Z,93.58
2022-12-03T05:13:40.133Z,94.00
2022-12-03T05:15:11.820Z,94.55
2022-12-03T05:16:44.884Z,94.36
2022-12-03T05:18:16.539Z,93.73
2022-12-03T05:20:06.975Z,92.92
2022-12-03T05:21:38.580Z,94.08
2022-12-03T05:23:10.551Z,94.12
2022-12-03T05:24:42.288Z,94.40
2022-12-03T05:26:14.057Z,93.89
2022-12-03T05:27:45.779Z,93.28
2022-12-03T05:29:17.408Z,93.59
2022-12-03T05:30:50.072Z,93.64
2022-12-03T05:32:23.134Z,93.77
2022-12-03T05:33:55.167Z,94.30
2022-12-03T05:35:26.760Z,93.51
2022-12-03T05:36:58.386Z,93.64
2022-12-03T05:38:30.018Z,94.37
2022-12-03T05:40:01.719Z,94.85
2022-12-03T05:41:52.040Z,94.30
2022-12-03T05:43:24.175Z,94.38
2022-12-03T05:44:55.976Z,94.66
2022-12-03T05:46:27.954Z,94.46
2022-12-03T05:48:01.102Z,94.40
2022-12-03T05:49:32.729Z,94.46
2022-12-03T05:51:04.456Z,94.20
2022-12-03T05:52:36.242Z,93.87
2022-12-03T05:54:07.909Z,94.08
2022-12-03T05:55:39.616Z,93.54
2022-12-03T05:57:11.225Z,93.94
2022-12-03T05:58:42.870Z,93.87
2022-12-03T06:00:15.954Z,93.64
2022-12-03T06:01:47.629Z,94.30
2022-12-03T06:03:20.800Z,93.61
2022-12-03T06:04:52.806Z,94.26
2022-12-03T06:06:24.565Z,93.64
2022-12-03T06:07:56.283Z,93.53
2022-12-03T06:09:30.573Z,94.01
2022-12-03T06:11:02.228Z,93.05
2022-12-03T06:12:33.866Z,93.18
2022-12-03T06:14:05.529Z,93.20
2022-12-03T06:15:42.082Z,94.11
2022-12-03T06:17:15.481Z,94.36
2022-12-03T06:18:48.503Z,94.11
2022-12-03T06:20:20.343Z,94.05
2022-12-03T06:21:51.955Z,93.51
2022-12-03T06:23:23.636Z,93.70
2022-12-03T06:24:55.495Z,93.81
2022-12-03T06:26:27.425Z,94.09
2022-12-03T06:27:59.050Z,93.69
2022-12-03T06:29:30.792Z,93.66
2022-12-03T06:31:02.471Z,93.58
2022-12-03T06:32:34.117Z,94.06
2022-12-03T06:34:07.157Z,94.53
2022-12-03T06:35:38.833Z,94.45
2022-12-03T06:37:10.471Z,94.00
2022-12-03T06:38:42.144Z,94.50
2022-12-03T06:40:14.393Z,94.74
2022-12-03T06:41:46.029Z,94.12
2022-12-03T06:43:17.676Z,94.29
2022-12-03T06:44:49.332Z,93.76
2022-12-03T06:46:21.105Z,94.48
2022-12-03T06:47:54.500Z,94.44
2022-12-03T06:49:27.592Z,94.11
2022-12-03T06:50:59.244Z,94.30
2022-12-03T06:52:30.859Z,94.11
2022-12-03T06:54:02.792Z,93.58
2022-12-03T06:55:34.428Z,94.35
2022-12-03T06:57:06.075Z,94.24
2022-12-03T06:58:37.735Z,93.91
2022-12-03T07:00:10.464Z,93.89
2022-12-03T07:01:42.295Z,94.45
2022-12-03T07:03:14.124Z,93.27
2022-12-03T07:04:47.204Z,93.56
2022-12-03T07:06:18.852Z,94.15
2022-12-03T07:07:52.266Z,94.58
2022-12-03T07:09:24.109Z,93.41
2022-12-03T07:10:55.783Z,94.72
2022-12-03T07:12:27.424Z,94.14
2022-12-03T07:14:04.664Z,94.32
2022-12-03T07:15:37.573Z,93.57
2022-12-03T07:17:09.351Z,93.50
2022-12-03T07:18:41.005Z,93.94
2022-12-03T07:20:14.336Z,95.34
2022-12-03T07:21:46.019Z,93.66
2022-12-03T07:23:17.620Z,93.77
2022-12-03T07:24:49.238Z,93.56
2022-12-03T07:26:21.016Z,94.04
2022-12-03T07:27:52.660Z,93.93
2022-12-03T07:29:24.269Z,93.86
2022-12-03T07:30:55.951Z,93.93
2022-12-03T07:32:27.594Z,94.19
2022-12-03T07:33:59.254Z,94.12
2022-12-03T07:35:32.273Z,94.62
2022-12-03T07:37:03.883Z,94.69
2022-12-03T07:38:35.592Z,93.99
2022-12-03T07:40:08.449Z,94.31
2022-12-03T07:41:40.141Z,94.15
2022-12-03T07:43:11.781Z,94.11
2022-12-03T07:44:43.388Z,94.58
2022-12-03T07:46:15.016Z,94.52
2022-12-03T07:47:46.892Z,94.31
2022-12-03T07:49:18.519Z,94.82
2022-12-03T07:50:51.765Z,93.79
2022-12-03T07:52:23.342Z,93.89
2022-12-03T07:53:55.008Z,94.29
2022-12-03T07:55:26.662Z,94.15
2022-12-03T07:57:01.665Z,94.08
2022-12-03T07:58:33.567Z,94.21
2022-12-03T08:00:06.417Z,93.02
2022-12-03T08:01:38.339Z,94.96
2022-12-03T08:03:10.032Z,93.41
2022-12-03T08:04:41.691Z,93.59
2022-12-03T08:06:14.661Z,93.48
2022-12-03T08:07:46.307Z,93.42
2022-12-03T08:09:17.960Z,93.73
2022-12-03T08:10:49.608Z,93.30
2022-12-03T08:12:23.172Z,93.24
2022-12-03T08:13:54.802Z,92.79
2022-12-03T08:15:31.062Z,93.51
2022-12-03T08:17:09.439Z,93.44
2022-12-03T08:18:41.061Z,93.82
2022-12-03T08:20:14.553Z,93.67
2022-12-03T08:21:47.518Z,93.39
2022-12-03T08:23:19.843Z,93.40
2022-12-03T08:24:51.683Z,93.29
2022-12-03T08:26:24.441Z,93.81
2022-12-03T08:28:00.372Z,93.37
2022-12-03T08:29:31.985Z,94.49
2022-12-03T08:31:13.682Z,93.43
2022-12-03T08:32:53.693Z,93.34
2022-12-03T08:34:26.666Z,93.03
2022-12-03T08:35:58.331Z,92.99
2022-12-03T08:37:31.348Z,92.70
2022-12-03T08:39:13.345Z,92.80
2022-12-03T08:40:46.285Z,93.05
2022-12-03T08:42:38.638Z,94.21
2022-12-03T08:44:14.857Z,92.55
2022-12-03T08:45:46.573Z,93.29
2022-12-03T08:47:19.741Z,93.24
2022-12-03T08:48:51.369Z,93.66
2022-12-03T08:50:26.353Z,93.85
2022-12-03T08:51:59.943Z,92.64
2022-12-03T08:53:34.742Z,92.69
2022-12-03T08:55:29.002Z,92.38
2022-12-03T08:57:00.898Z,93.10
2022-12-03T08:58:39.641Z,92.15
2022-12-03T09:00:15.485Z,92.16
2022-12-03T09:01:47.394Z,93.09
2022-12-03T09:03:19.162Z,92.76
2022-12-03T09:04:53.112Z,91.99
2022-12-03T09:06:25.008Z,92.72
2022-12-03T09:07:56.667Z,92.05
2022-12-03T09:09:29.697Z,91.48
2022-12-03T09:11:01.446Z,92.03
2022-12-03T09:12:33.059Z,92.90
2022-12-03T09:14:04.819Z,92.39
2022-12-03T09:15:36.455Z,91.95
2022-12-03T09:17:08.176Z,92.88
2022-12-03T09:18:39.886Z,92.82
2022-12-03T09:20:12.130Z,92.00
2022-12-03T09:21:43.765Z,92.41
2022-12-03T09:23:15.402Z,92.55
2022-12-03T09:24:48.425Z,91.51
2022-12-03T09:26:20.173Z,91.57
2022-12-03T09:27:51.878Z,91.25
2022-12-03T09:29:23.534Z,91.31
2022-12-03T09:30:55.132Z,92.29
2022-12-03T09:32:26.821Z,92.57
2022-12-03T09:33:58.566Z,91.98
2022-12-03T09:35:30.158Z,91.88
2022-12-03T09:37:01.912Z,91.69
2022-12-03T09:38:33.545Z,91.76
2022-12-03T09:40:07.959Z,91.11
2022-12-03T09:41:39.600Z,92.16
2022-12-03T09:43:11.464Z,91.85
2022-12-03T09:44:43.076Z,91.40
2022-12-03T09:46:14.714Z,91.69
2022-12-03T09:47:47.336Z,91.35
2022-12-03T09:49:19.908Z,91.01
2022-12-03T09:50:51.545Z,90.89
2022-12-03T09:52:24.970Z,91.04
2022-12-03T09:53:58.463Z,91.37
2022-12-03T09:55:31.494Z,91.16
2022-12-03T09:57:03.493Z,91.53
2022-12-03T09:58:35.199Z,90.62
2022-12-03T10:00:11.079Z,91.28
2022-12-03T10:01:42.784Z,91.08
2022-12-03T10:03:15.470Z,90.96
2022-12-03T10:04:47.305Z,91.19
2022-12-03T10:06:19.936Z,91.09
2022-12-03T10:07:52.223Z,91.61
2022-12-03T10:09:25.018Z,90.98
2022-12-03T10:10:58.158Z,91.66
2022-12-03T10:12:29.808Z,91.63
2022-12-03T10:14:04.488Z,90.54
2022-12-03T10:15:36.149Z,91.63
2022-12-03T10:17:07.961Z,91.28
2022-12-03T10:18:41.852Z,90.77
2022-12-03T10:20:17.095Z,91.48
2022-12-03T10:21:48.813Z,91.31
2022-12-03T10:23:22.091Z,92.00
2022-12-03T10:25:05.093Z,91.78
2022-12-03T10:26:40.552Z,91.25
2022-12-03T10:28:26.976Z,90.62
2022-12-03T10:30:02.248Z,91.19
2022-12-03T10:31:35.352Z,91.76
2022-12-03T10:33:15.695Z,91.28
2022-12-03T10:34:50.209Z,91.12
2022-12-03T10:36:23.364Z,90.87
2022-12-03T10:37:57.039Z,90.72
2022-12-03T10:39:31.837Z,91.08
2022-12-03T10:41:07.815Z,90.81
2022-12-03T10:42:40.857Z,91.07
2022-12-03T10:44:16.501Z,90.49
2022-12-03T10:45:48.645Z,91.27
2022-12-03T10:47:22.626Z,90.83
2022-12-03T10:49:10.106Z,90.41
2022-12-03T10:50:49.330Z,90.39
2022-12-03T10:52:25.694Z,89.96
2022-12-03T10:53:57.888Z,90.57
2022-12-03T10:55:29.673Z,90.86
2022-12-03T10:57:01.587Z,89.89
2022-12-03T10:58:36.331Z,89.53
2022-12-03T11:00:11.618Z,90.00
2022-12-03T11:01:43.392Z,89.76
2022-12-03T11:03:19.280Z,89.88
2022-12-03T11:04:51.412Z,89.93
2022-12-03T11:06:23.409Z,89.30
2022-12-03T11:07:55.430Z,89.48
2022-12-03T11:09:28.338Z,90.27
2022-12-03T11:11:01.072Z,89.70
2022-12-03T11:12:34.665Z,89.32
2022-12-03T11:14:09.611Z,89.93
2022-12-03T11:15:42.308Z,89.61
2022-12-03T11:17:14.017Z,88.84
2022-12-03T11:18:58.202Z,89.67
2022-12-03T11:21:09.405Z,89.00
2022-12-03T11:22:42.458Z,89.81
2022-12-03T11:24:21.857Z,89.14
2022-12-03T11:25:53.485Z,89.38
2022-12-03T11:27:25.104Z,89.21
2022-12-03T11:28:57.050Z,90.10
2022-12-03T11:30:58.302Z,89.59
2022-12-03T11:33:03.469Z,89.83
2022-12-03T11:34:44.291Z,89.38
2022-12-03T11:36:16.036Z,89.50
2022-12-03T11:37:47.678Z,89.70
2022-12-03T11:39:39.151Z,88.67
2022-12-03T11:41:11.302Z,90.49
2022-12-03T11:42:43.119Z,90.00
2022-12-03T11:44:31.340Z,89.21
2022-12-03T11:46:09.547Z,90.12
2022-12-03T11:47:42.807Z,89.83
2022-12-03T11:49:33.416Z,89.22
2022-12-03T11:51:12.714Z,89.30
2022-12-03T11:52:45.155Z,89.12
2022-12-03T11:54:17.592Z,89.64
2022-12-03T11:55:53.267Z,89.78
2022-12-03T11:57:30.448Z,89.80
2022-12-03T11:59:02.908Z,89.68
2022-12-03T12:00:34.532Z,90.43
2022-12-03T12:02:20.701Z,89.83
2022-12-03T12:03:52.464Z,89.49
2022-12-03T12:05:26.920Z,90.28
2022-12-03T12:06:58.572Z,89.86
2022-12-03T12:08:30.165Z,90.30
2022-12-03T12:10:01.915Z,90.25
2022-12-03T12:11:34.475Z,89.75
2022-12-03T12:13:06.165Z,89.31
2022-12-03T12:14:37.779Z,90.45
2022-12-03T12:16:10.004Z,89.85
2022-12-03T12:17:43.078Z,90.06
2022-12-03T12:19:28.479Z,90.30
2022-12-03T12:21:33.557Z,89.51
2022-12-03T12:23:20.478Z,90.03
2022-12-03T12:24:52.310Z,89.81
2022-12-03T12:26:23.916Z,89.76
2022-12-03T12:27:55.683Z,89.77
2022-12-03T12:29:27.555Z,89.27
2022-12-03T12:30:59.475Z,89.17
2022-12-03T12:32:32.116Z,89.93
2022-12-03T12:34:11.061Z,90.43
2022-12-03T12:35:42.734Z,89.43
2022-12-03T12:37:19.046Z,89.79
2022-12-03T12:38:50.689Z,89.67
2022-12-03T12:40:26.881Z,89.62
2022-12-03T12:41:58.520Z,90.24
2022-12-03T12:43:32.525Z,90.22
2022-12-03T12:45:14.505Z,89.64
2022-12-03T12:46:48.375Z,90.15
2022-12-03T12:48:23.395Z,89.34
2022-12-03T12:49:56.915Z,89.40
2022-12-03T12:51:28.873Z,90.09
2022-12-03T12:53:02.057Z,89.53
2022-12-03T12:54:33.762Z,89.85
2022-12-03T12:56:08.161Z,89.72
2022-12-03T12:57:39.776Z,90.21
2022-12-03T12:59:12.635Z,89.40
2022-12-03T13:00:44.867Z,90.27
2022-12-03T13:02:49.707Z,89.99
2022-12-03T13:04:22.284Z,90.09
2022-12-03T13:05:56.521Z,89.81
2022-12-03T13:07:28.321Z,89.63
2022-12-03T13:09:02.623Z,89.86
2022-12-03T13:10:38.790Z,89.99
2022-12-03T13:12:17.752Z,90.01
2022-12-03T13:13:49.375Z,89.54
2022-12-03T13:15:37.852Z,90.50
2022-12-03T13:17:12.828Z,90.30
2022-12-03T13:18:45.876Z,90.19
2022-12-03T13:20:17.967Z,90.22
2022-12-03T13:21:51.467Z,89.62
2022-12-03T13:23:28.855Z,90.23
2022-12-03T13:25:00.578Z,90.05
2022-12-03T13:26:38.738Z,90.17
2022-12-03T13:28:13.097Z,90.39
2022-12-03T13:29:45.078Z,90.39
2022-12-03T13:31:27.537Z,90.22
2022-12-03T13:33:01.622Z,90.48
2022-12-03T13:34:33.611Z,90.11
2022-12-03T13:36:06.123Z,90.59
2022-12-03T13:37:39.231Z,90.06
2022-12-03T13:39:13.621Z,89.74
2022-12-03T13:40:47.645Z,90.06
2022-12-03T13:42:38.839Z,89.57
2022-12-03T13:44:13.524Z,89.49
2022-12-03T13:45:45.305Z,89.37
2022-12-03T13:47:19.682Z,89.44
2022-12-03T13:48:51.350Z,89.75
2022-12-03T13:50:27.537Z,89.07
2022-12-03T13:51:59.186Z,89.72
2022-12-03T13:53:34.183Z,89.38
2022-12-03T13:55:06.951Z,88.54
2022-12-03T13:56:38.604Z,89.63
2022-12-03T13:58:10.257Z,89.91
2022-12-03T13:59:44.496Z,89.67
2022-12-03T14:01:16.296Z,89.98
2022-12-03T14:02:48.004Z,89.35
2022-12-03T14:04:19.659Z,88.78
2022-12-03T14:05:51.702Z,89.80
2022-12-03T14:07:23.320Z,89.66
2022-12-03T14:08:56.298Z,89.42
2022-12-03T14:10:28.059Z,89.68
2022-12-03T14:12:18.212Z,90.23
2022-12-03T14:13:49.856Z,89.82
2022-12-03T14:15:26.160Z,89.95
2022-12-03T14:17:00.019Z,89.70
2022-12-03T14:18:31.919Z,89.99
2022-12-03T14:20:04.024Z,91.13
2022-12-03T14:21:35.652Z,90.71
2022-12-03T14:23:07.295Z,90.30
2022-12-03T14:24:40.321Z,90.49
2022-12-03T14:26:11.960Z,90.32
2022-12-03T14:27:43.581Z,90.14
2022-12-03T14:29:15.207Z,89.55
2022-12-03T14:30:46.797Z,90.44
2022-12-03T14:32:18.511Z,90.01
2022-12-03T14:33:50.231Z,90.70
2022-12-03T14:35:22.034Z,90.88
2022-12-03T14:36:53.722Z,90.43
2022-12-03T14:38:25.758Z,90.22
2022-12-03T14:39:58.762Z,90.41
2022-12-03T14:41:48.783Z,90.54
2022-12-03T14:43:20.385Z,90.22
2022-12-03T14:44:52.172Z,90.65
2022-12-03T14:46:23.848Z,91.24
2022-12-03T14:47:55.456Z,90.73
2022-12-03T14:49:27.292Z,91.09
2022-12-03T14:50:59.647Z,90.58
2022-12-03T14:52:31.338Z,90.63
2022-12-03T14:54:03.119Z,90.34
2022-12-03T14:55:36.411Z,90.91
2022-12-03T14:57:08.073Z,90.82
2022-12-03T14:58:40.076Z,91.23
2022-12-03T15:00:12.987Z,89.91
2022-12-03T15:01:44.838Z,90.18
2022-12-03T15:03:16.620Z,90.72
2022-12-03T15:04:48.307Z,90.11
2022-12-03T15:06:22.428Z,90.46
2022-12-03T15:07:54.310Z,90.84
2022-12-03T15:09:26.128Z,90.91
2022-12-03T15:10:59.222Z,90.49
2022-12-03T15:12:31.552Z,90.58
2022-12-03T15:14:03.247Z,90.74
2022-12-03T15:15:37.973Z,90.66
2022-12-03T15:17:09.732Z,90.50
2022-12-03T15:18:41.574Z,90.43
2022-12-03T15:20:14.176Z,89.49
2022-12-03T15:21:45.901Z,90.69
2022-12-03T15:23:17.934Z,90.73
2022-12-03T15:24:49.610Z,90.87
2022-12-03T15:26:22.698Z,91.21
2022-12-03T15:27:54.485Z,91.14
2022-12-03T15:29:26.379Z,90.39
2022-12-03T15:30:58.092Z,90.97
2022-12-03T15:32:29.902Z,90.83
2022-12-03T15:34:01.565Z,91.04
2022-12-03T15:35:33.263Z,91.43
2022-12-03T15:37:04.968Z,90.54
2022-12-03T15:38:36.644Z,91.48
2022-12-03T15:40:09.155Z,90.43
2022-12-03T15:41:42.252Z,91.46
2022-12-03T15:43:14.108Z,90.48
2022-12-03T15:44:45.737Z,90.45
2022-12-03T15:46:17.479Z,90.76
2022-12-03T15:47:49.260Z,91.00
2022-12-03T15:49:20.899Z,90.23
2022-12-03T15:50:52.645Z,91.00
2022-12-03T15:52:24.267Z,90.97
2022-12-03T15:53:55.932Z,90.49
2022-12-03T15:55:27.619Z,90.76
2022-12-03T15:57:00.646Z,91.24
2022-12-03T15:58:32.286Z,91.13
2022-12-03T16:00:04.567Z,90.73
2022-12-03T16:01:36.369Z,90.80
2022-12-03T16:03:08.202Z,90.84
2022-12-03T16:04:39.864Z,92.29
2022-12-03T16:06:12.573Z,91.51
2022-12-03T16:07:44.298Z,92.07
2022-12-03T16:09:15.985Z,91.59
2022-12-03T16:10:47.691Z,91.84
2022-12-03T16:12:20.841Z,91.58
2022-12-03T16:13:52.511Z,91.56
2022-12-03T16:15:27.324Z,90.77
2022-12-03T16:17:00.151Z,91.23
2022-12-03T16:18:32.254Z,91.88
2022-12-03T16:20:04.624Z,91.27
2022-12-03T16:21:36.350Z,91.36
2022-12-03T16:23:08.241Z,91.27
2022-12-03T16:24:39.996Z,91.38
2022-12-03T16:26:11.620Z,90.92
2022-12-03T16:27:44.841Z,91.54
2022-12-03T16:29:16.543Z,91.92
2022-12-03T16:30:48.193Z,91.48
2022-12-03T16:32:19.907Z,91.59
2022-12-03T16:33:51.544Z,91.18
2022-12-03T16:35:23.246Z,91.27
2022-12-03T16:36:55.441Z,90.97
2022-12-03T16:38:27.062Z,91.34
2022-12-03T16:39:58.787Z,91.02
2022-12-03T16:41:30.461Z,90.89
2022-12-03T16:43:04.695Z,91.13
2022-12-03T16:44:54.328Z,90.68
2022-12-03T16:46:28.273Z,92.16
2022-12-03T16:48:01.219Z,91.26
2022-12-03T16:49:32.970Z,91.04
2022-12-03T16:51:04.815Z,90.80
2022-12-03T16:52:39.020Z,91.30
2022-12-03T16:54:11.734Z,91.96
2022-12-03T16:55:43.446Z,90.42
2022-12-03T16:57:15.133Z,91.26
2022-12-03T16:58:48.145Z,91.44
2022-12-03T17:00:21.993Z,91.79
2022-12-03T17:01:53.766Z,91.75
2022-12-03T17:03:30.441Z,91.95
2022-12-03T17:05:05.839Z,90.83
2022-12-03T17:06:37.522Z,91.17
2022-12-03T17:08:09.179Z,92.57
2022-12-03T17:09:40.825Z,91.54
2022-12-03T17:11:12.573Z,91.26
2022-12-03T17:13:08.091Z,91.72
2022-12-03T17:14:37.438Z,91.48
2022-12-03T17:16:09.296Z,91.13
2022-12-03T17:17:40.951Z,91.45
2022-12-03T17:19:12.562Z,90.96
2022-12-03T17:20:44.200Z,91.77
2022-12-03T17:22:15.830Z,91.15
2022-12-03T17:23:48.867Z,90.73
2022-12-03T17:25:20.574Z,91.53
2022-12-03T17:26:52.210Z,90.95
2022-12-03T17:28:23.836Z,91.18
2022-12-03T17:29:57.047Z,91.12
2022-12-03T17:31:28.751Z,90.91
2022-12-03T17:33:00.372Z,90.98
2022-12-03T17:34:32.103Z,91.79
2022-12-03T17:36:04.159Z,91.35
2022-12-03T17:37:50.847Z,91.57
2022-12-03T17:39:22.571Z,92.11
2022-12-03T17:40:54.351Z,91.78
2022-12-03T17:42:26.024Z,91.15
2022-12-03T17:43:57.690Z,91.23
2022-12-03T17:45:30.713Z,91.59
2022-12-03T17:47:02.361Z,92.10
2022-12-03T17:48:34.061Z,92.01
2022-12-03T17:50:07.057Z,91.76
2022-12-03T17:51:39.319Z,91.48
2022-12-03T17:53:11.099Z,92.15
2022-12-03T17:55:09.065Z,91.24
2022-12-03T17:56:34.417Z,91.22
2022-12-03T17:58:06.112Z,91.76
2022-12-03T17:59:37.795Z,91.62
2022-12-03T18:01:10.909Z,92.00
2022-12-03T18:02:42.579Z,91.84
2022-12-03T18:04:14.232Z,91.30
2022-12-03T18:05:45.870Z,91.45
2022-12-03T18:07:17.526Z,91.91
2022-12-03T18:08:49.164Z,91.96
2022-12-03T18:10:20.840Z,92.17
2022-12-03T18:11:52.518Z,92.31
2022-12-03T18:13:24.169Z,91.66
2022-12-03T18:14:55.816Z,92.06
2022-12-03T18:16:28.844Z,92.21
2022-12-03T18:18:00.623Z,92.22
2022-12-03T18:19:32.241Z,92.60
2022-12-03T18:21:04.290Z,92.04
2022-12-03T18:22:36.052Z,91.73
2022-12-03T18:24:08.234Z,92.37
2022-12-03T18:25:39.865Z,91.73
2022-12-03T18:27:11.554Z,91.61
2022-12-03T18:28:43.198Z,92.25
2022-12-03T18:30:15.187Z,92.05
2022-12-03T18:31:48.249Z,92.73
2022-12-03T18:33:21.202Z,92.38
2022-12-03T18:34:53.978Z,92.80
2022-12-03T18:36:26.413Z,92.18
2022-12-03T18:37:58.032Z,92.91
2022-12-03T18:39:33.095Z,91.91
2022-12-03T18:41:04.814Z,92.20
2022-12-03T18:42:36.454Z,91.57
2022-12-03T18:44:09.618Z,91.91
2022-12-03T18:45:41.342Z,92.11
2022-12-03T18:47:14.987Z,91.95
2022-12-03T18:48:47.543Z,92.82
2022-12-03T18:50:19.232Z,92.83
2022-12-03T18:51:56.011Z,92.20
2022-12-03T18:53:30.739Z,93.09
2022-12-03T18:55:02.388Z,91.93
2022-12-03T18:56:34.129Z,92.36
2022-12-03T18:58:05.771Z,91.71
2022-12-03T18:59:37.400Z,93.27
2022-12-03T19:01:13.278Z,92.37
2022-12-03T19:03:02.491Z,91.94
2022-12-03T19:04:35.288Z,92.51
2022-12-03T19:06:15.439Z,92.35
2022-12-03T19:07:51.231Z,92.37
2022-12-03T19:09:22.942Z,91.89
2022-12-03T19:10:55.624Z,92.21
2022-12-03T19:12:27.234Z,92.47
2022-12-03T19:13:59.143Z,92.29
2022-12-03T19:15:31.203Z,92.79
2022-12-03T19:17:15.744Z,92.94
2022-12-03T19:18:48.825Z,92.92
2022-12-03T19:20:20.490Z,92.20
2022-12-03T19:21:52.212Z,92.99
2022-12-03T19:23:24.322Z,92.70
2022-12-03T19:24:56.406Z,92.27
2022-12-03T19:26:30.317Z,92.97
2022-12-03T19:28:01.953Z,92.81
2022-12-03T19:29:33.591Z,92.78
2022-12-03T19:31:06.154Z,93.43
2022-12-03T19:32:37.839Z,93.62
2022-12-03T19:34:10.864Z,92.61
2022-12-03T19:35:42.507Z,93.21
2022-12-03T19:37:14.151Z,92.49
2022-12-03T19:38:46.539Z,92.62
2022-12-03T19:40:18.256Z,92.90
2022-12-03T19:41:49.883Z,93.02
2022-12-03T19:43:21.607Z,92.33
2022-12-03T19:44:53.269Z,92.17
2022-12-03T19:46:25.965Z,93.64
2022-12-03T19:47:57.743Z,92.92
2022-12-03T19:49:30.845Z,92.75
2022-12-03T19:51:26.559Z,93.54
2022-12-03T19:52:54.627Z,92.59
2022-12-03T19:54:26.348Z,92.42
2022-12-03T19:56:01.185Z,93.02
2022-12-03T19:57:32.845Z,92.90
2022-12-03T19:59:05.193Z,92.65
2022-12-03T20:00:36.849Z,92.42
2022-12-03T20:02:09.299Z,92.89
2022-12-03T20:03:41.122Z,93.42